createdAt,value
2023-09-17T00:02:08.379Z,10.98
2023-09-17T00:07:00.304Z,9.98
2023-09-17T00:11:55.177Z,9.35
2023-09-17T00:16:47.773Z,13.60
2023-09-17T00:21:39.858Z,9.25
2023-09-17T00:26:31.773Z,8.95
2023-09-17T00:31:24.564Z,11.57
2023-09-17T00:36:16.315Z,8.75
2023-09-17T00:41:08.719Z,9.35
2023-09-17T00:46:00.763Z,10.70
2023-09-17T00:50:52.599Z,12.85
2023-09-17T00:55:44.576Z,14.00
2023-09-17T01:00:39.754Z,11.15
2023-09-17T01:05:38.269Z,12.13
2023-09-17T01:10:30.390Z,10.10
2023-09-17T01:15:22.242Z,10.13
2023-09-17T01:20:30.903Z,9.90
2023-09-17T01:25:43.864Z,9.50
2023-09-17T01:30:36.164Z,9.77
2023-09-17T01:35:29.346Z,10.90
2023-09-17T01:40:22.066Z,10.13
2023-09-17T01:45:15.376Z,10.60
2023-09-17T01:50:09.001Z,11.00
2023-09-17T01:55:04.066Z,11.02
2023-09-17T01:59:55.967Z,11.45
2023-09-17T02:04:47.918Z,15.10
2023-09-17T02:09:39.713Z,18.30
2023-09-17T02:14:31.472Z,19.40
2023-09-17T02:19:23.927Z,19.95
2023-09-17T02:24:15.899Z,19.20
2023-09-17T02:29:08.132Z,18.73
2023-09-17T02:34:00.005Z,14.48
2023-09-17T02:38:51.810Z,17.38
2023-09-17T02:43:44.255Z,17.05
2023-09-17T02:48:36.097Z,14.32
2023-09-17T02:53:28.071Z,15.85
2023-09-17T02:58:19.906Z,17.08
2023-09-17T03:03:12.582Z,15.27
2023-09-17T03:08:06.600Z,15.50
2023-09-17T03:12:59.028Z,14.55
2023-09-17T03:17:51.063Z,15.15
2023-09-17T03:22:45.975Z,16.67
2023-09-17T03:27:40.074Z,16.42
2023-09-17T03:32:32.544Z,15.98
2023-09-17T03:37:25.698Z,17.00
2023-09-17T03:42:18.139Z,19.25
2023-09-17T03:47:10.221Z,17.88
2023-09-17T03:52:05.583Z,16.40
2023-09-17T03:56:57.542Z,15.93
2023-09-17T04:01:50.314Z,15.02
2023-09-17T04:06:42.145Z,14.88
2023-09-17T04:11:33.900Z,13.85
2023-09-17T04:16:25.811Z,14.93
2023-09-17T04:21:17.787Z,15.00
2023-09-17T04:26:13.533Z,13.85
2023-09-17T04:31:05.511Z,14.05
2023-09-17T04:35:58.586Z,14.68
2023-09-17T04:40:50.451Z,14.45
2023-09-17T04:45:43.504Z,13.77
2023-09-17T04:50:48.505Z,14.07
2023-09-17T04:55:41.536Z,13.20
2023-09-17T05:00:33.772Z,13.07
2023-09-17T05:05:26.890Z,13.23
2023-09-17T05:10:19.110Z,12.18
2023-09-17T05:15:12.413Z,12.38
2023-09-17T05:20:08.034Z,14.48
2023-09-17T05:25:00.240Z,12.70
2023-09-17T05:29:52.900Z,12.38
2023-09-17T05:34:45.574Z,12.27
2023-09-17T05:39:38.391Z,13.73
2023-09-17T05:44:31.104Z,11.77
2023-09-17T05:49:22.984Z,11.60
2023-09-17T05:54:15.125Z,12.10
2023-09-17T05:59:07.607Z,11.57
2023-09-17T06:03:59.632Z,11.35
2023-09-17T06:08:52.138Z,11.32
2023-09-17T06:13:44.298Z,12.45
2023-09-17T06:18:36.394Z,10.55
2023-09-17T06:23:28.739Z,11.18
2023-09-17T06:28:21.137Z,11.35
2023-09-17T06:33:13.209Z,14.48
2023-09-17T06:38:05.238Z,11.00
2023-09-17T06:42:57.123Z,17.13
2023-09-17T06:47:49.076Z,20.50
2023-09-17T06:52:41.058Z,22.45
2023-09-17T06:57:33.318Z,19.42
2023-09-17T07:02:25.584Z,22.38
2023-09-17T07:07:17.497Z,21.02
2023-09-17T07:12:09.362Z,20.20
2023-09-17T07:17:01.220Z,20.95
2023-09-17T07:21:53.124Z,20.98
2023-09-17T07:26:45.442Z,21.77
2023-09-17T07:31:37.438Z,21.00
2023-09-17T07:36:29.770Z,21.27
2023-09-17T07:41:21.580Z,22.20
2023-09-17T07:46:14.898Z,18.90
2023-09-17T07:51:06.893Z,19.45
2023-09-17T07:55:58.747Z,18.85
2023-09-17T08:00:50.756Z,19.92
2023-09-17T08:05:45.258Z,21.42
2023-09-17T08:10:38.262Z,21.83
2023-09-17T08:15:31.169Z,19.05
2023-09-17T08:20:23.954Z,24.15
2023-09-17T08:25:15.863Z,21.85
2023-09-17T08:30:13.207Z,24.98
2023-09-17T08:35:07.391Z,27.58
2023-09-17T08:39:59.316Z,31.02
2023-09-17T08:44:52.956Z,33.75
2023-09-17T08:49:44.803Z,26.30
2023-09-17T08:54:42.920Z,26.55
2023-09-17T08:59:41.949Z,22.55
2023-09-17T09:04:37.969Z,23.42
2023-09-17T09:09:31.397Z,22.42
2023-09-17T09:14:23.407Z,25.52
2023-09-17T09:19:15.158Z,22.35
2023-09-17T09:24:07.273Z,24.95
2023-09-17T09:28:59.073Z,22.80
2023-09-17T09:33:51.060Z,24.38
2023-09-17T09:38:43.662Z,23.92
2023-09-17T09:43:35.742Z,23.83
2023-09-17T09:48:29.478Z,23.83
2023-09-17T09:53:21.290Z,23.05
2023-09-17T09:58:13.818Z,24.45
2023-09-17T10:03:08.257Z,22.77
2023-09-17T10:08:00.150Z,21.92
2023-09-17T10:12:55.713Z,22.13
2023-09-17T10:17:49.488Z,23.50
2023-09-17T10:22:42.619Z,22.33
2023-09-17T10:27:37.312Z,21.52
2023-09-17T10:32:30.953Z,20.67
2023-09-17T10:37:23.255Z,19.63
2023-09-17T10:42:16.907Z,19.88
2023-09-17T10:47:11.794Z,18.25
2023-09-17T10:52:04.991Z,18.27
2023-09-17T10:56:58.115Z,19.23
2023-09-17T11:01:51.096Z,18.17
2023-09-17T11:06:45.856Z,16.85
2023-09-17T11:11:38.196Z,16.63
2023-09-17T11:16:31.275Z,17.00
2023-09-17T11:21:23.705Z,16.50
2023-09-17T11:26:20.529Z,18.92
2023-09-17T11:31:15.177Z,15.13
2023-09-17T11:36:07.446Z,16.48
2023-09-17T11:41:09.363Z,16.17
2023-09-17T11:46:05.777Z,17.30
2023-09-17T11:51:28.071Z,15.93
2023-09-17T11:56:21.074Z,14.27
2023-09-17T12:01:13.036Z,13.98
2023-09-17T12:06:06.237Z,15.00
2023-09-17T12:11:03.551Z,13.60
2023-09-17T12:15:58.056Z,13.40
2023-09-17T12:21:00.659Z,13.40
2023-09-17T12:25:52.624Z,16.75
2023-09-17T12:30:44.429Z,12.57
2023-09-17T12:35:37.111Z,11.77
2023-09-17T12:40:29.048Z,13.05
2023-09-17T12:45:21.093Z,12.38
2023-09-17T12:50:12.997Z,11.77
2023-09-17T12:55:05.131Z,12.10
2023-09-17T12:59:56.992Z,12.25
2023-09-17T13:04:48.785Z,10.70
2023-09-17T13:09:40.706Z,14.25
2023-09-17T13:14:36.098Z,12.07
2023-09-17T13:19:28.200Z,9.65
2023-09-17T13:24:20.756Z,9.88
2023-09-17T13:29:12.579Z,9.07
2023-09-17T13:34:06.162Z,11.55
2023-09-17T13:39:00.101Z,9.73
2023-09-17T13:43:51.939Z,9.70
2023-09-17T13:48:44.179Z,9.85
2023-09-17T13:53:35.924Z,13.45
2023-09-17T13:58:27.683Z,12.30
2023-09-17T14:03:19.638Z,12.48
2023-09-17T14:08:12.368Z,15.07
2023-09-17T14:13:06.363Z,10.50
2023-09-17T14:17:58.231Z,12.48
2023-09-17T14:22:50.168Z,15.90
2023-09-17T14:27:41.984Z,10.90
2023-09-17T14:32:33.982Z,12.63
2023-09-17T14:37:25.882Z,11.23
2023-09-17T14:42:17.926Z,11.05
2023-09-17T14:47:09.716Z,9.98
2023-09-17T14:52:01.534Z,10.52
2023-09-17T14:56:53.407Z,14.07
2023-09-17T15:06:39.946Z,11.20
2023-09-17T15:11:32.733Z,10.88
2023-09-17T15:16:24.591Z,10.88
2023-09-17T15:21:16.509Z,11.20
2023-09-17T15:26:08.389Z,10.55
2023-09-17T15:31:00.177Z,8.25
2023-09-17T15:35:55.419Z,9.82
2023-09-17T15:40:51.975Z,10.15
2023-09-17T15:45:43.803Z,7.75
2023-09-17T15:50:35.693Z,13.23
2023-09-17T15:55:27.436Z,11.57
2023-09-17T16:00:19.262Z,8.55
2023-09-17T16:05:11.725Z,8.63
2023-09-17T16:10:03.676Z,9.30
2023-09-17T16:14:55.443Z,11.20
2023-09-17T16:19:57.409Z,7.18
2023-09-17T16:24:49.602Z,9.57
2023-09-17T16:29:41.411Z,10.77
2023-09-17T16:34:37.517Z,11.63
2023-09-17T16:39:29.418Z,10.07
2023-09-17T16:44:21.201Z,6.97
2023-09-17T16:49:12.984Z,7.53
2023-09-17T16:54:04.981Z,9.18
2023-09-17T16:59:00.242Z,10.18
2023-09-17T17:03:52.305Z,8.73
2023-09-17T17:08:44.340Z,7.18
2023-09-17T17:13:36.115Z,10.68
2023-09-17T17:18:27.931Z,10.60
2023-09-17T17:23:19.752Z,16.65
2023-09-17T17:28:11.891Z,18.30
2023-09-17T17:33:04.044Z,23.90
2023-09-17T17:37:56.189Z,18.85
2023-09-17T17:42:47.997Z,13.77
2023-09-17T17:47:39.777Z,17.45
2023-09-17T17:52:31.604Z,15.60
2023-09-17T17:57:24.395Z,20.15
2023-09-17T18:02:16.434Z,14.38
2023-09-17T18:07:08.360Z,15.35
2023-09-17T18:12:01.104Z,14.48
2023-09-17T18:16:52.983Z,20.23
2023-09-17T18:21:44.882Z,23.80
2023-09-17T18:26:36.688Z,15.60
2023-09-17T18:31:28.501Z,17.13
2023-09-17T18:36:20.947Z,13.55
2023-09-17T18:41:12.777Z,14.35
2023-09-17T18:46:08.621Z,11.52
2023-09-17T18:51:01.274Z,16.00
2023-09-17T18:55:53.061Z,23.10
2023-09-17T19:00:45.280Z,18.45
2023-09-17T19:05:37.448Z,16.48
2023-09-17T19:10:29.228Z,16.15
2023-09-17T19:15:20.973Z,10.32
2023-09-17T19:20:12.818Z,10.88
2023-09-17T19:25:04.891Z,8.75
2023-09-17T19:29:56.712Z,10.85
2023-09-17T19:34:48.541Z,15.98
2023-09-17T19:39:40.797Z,10.60
2023-09-17T19:44:32.578Z,16.33
2023-09-17T19:49:24.339Z,17.98
2023-09-17T19:54:16.080Z,15.05
2023-09-17T19:59:07.858Z,14.23
2023-09-17T20:04:00.086Z,16.90
2023-09-17T20:08:52.136Z,14.98
2023-09-17T20:13:44.214Z,15.82
2023-09-17T20:18:37.722Z,18.40
2023-09-17T20:23:32.945Z,18.05
2023-09-17T20:28:24.677Z,16.23
2023-09-17T20:33:16.469Z,17.45
2023-09-17T20:38:09.096Z,10.32
2023-09-17T20:43:02.040Z,16.67
2023-09-17T20:47:55.164Z,14.55
2023-09-17T20:52:46.998Z,11.70
2023-09-17T20:57:38.889Z,10.43
2023-09-17T21:02:30.806Z,9.32
2023-09-17T21:07:23.935Z,15.38
2023-09-17T21:12:15.984Z,10.82
2023-09-17T21:17:07.875Z,14.55
2023-09-17T21:21:59.807Z,15.82
2023-09-17T21:26:53.396Z,13.57
2023-09-17T21:31:45.361Z,21.85
2023-09-17T21:36:37.142Z,17.05
2023-09-17T21:41:28.991Z,18.42
2023-09-17T21:46:20.980Z,15.82
2023-09-17T21:51:12.802Z,7.30
2023-09-17T21:56:04.776Z,12.40
2023-09-17T22:00:56.682Z,7.10
2023-09-17T22:05:48.428Z,11.85
2023-09-17T22:10:40.569Z,10.93
2023-09-17T22:15:32.660Z,9.27
2023-09-17T22:20:25.825Z,6.50
2023-09-17T22:25:17.828Z,9.75
2023-09-17T22:30:09.976Z,8.32
2023-09-17T22:35:01.907Z,6.57
2023-09-17T22:39:53.969Z,8.77
2023-09-17T22:44:45.736Z,7.43
2023-09-17T22:49:37.519Z,8.70
2023-09-17T22:54:29.896Z,5.38
2023-09-17T22:59:21.719Z,7.45
2023-09-17T23:04:13.489Z,7.40
2023-09-17T23:09:05.746Z,6.55
2023-09-17T23:13:57.676Z,9.68
2023-09-17T23:18:51.981Z,10.57
2023-09-17T23:23:44.312Z,8.02
2023-09-17T23:28:38.950Z,6.13
2023-09-17T23:33:32.080Z,5.38
2023-09-17T23:38:23.931Z,9.13
2023-09-17T23:43:15.667Z,7.07
2023-09-17T23:48:08.855Z,7.07
2023-09-17T23:53:00.783Z,6.05
2023-09-17T23:57:52.550Z,8.43
